Time;durP1;ratioP1;P1;durP2;ratioP2;P2;SDS_P1;SDS_P2;PMS_P1;PMS_P2;Temp;Humidity;BMP_temperature;BMP_pressure;BME280_temperature;BME280_humidity;BME280_pressure;Samples;Min_cycle;Max_cycle;Signal;HPM_P1;HPM_P2
2023/08/20 00:00:25;;;;;;;6.50;2.05;;;;;;;21.92;63.52;102000.72;5063735;28;20094;-63
2023/08/20 00:02:59;;;;;;;9.05;2.72;;;;;;;21.92;63.40;102002.66;5062934;28;20053;-63
2023/08/20 00:05:27;;;;;;;4.78;1.70;;;;;;;21.91;63.50;102004.56;5063485;28;20122;-63
2023/08/20 00:07:55;;;;;;;6.18;1.65;;;;;;;21.90;63.52;102007.56;5063361;28;20049;-63
2023/08/20 00:10:23;;;;;;;7.28;2.05;;;;;;;21.88;63.68;101999.63;5061199;28;20102;-63
2023/08/20 00:12:51;;;;;;;7.63;2.28;;;;;;;21.87;63.71;102008.94;5043034;28;20056;-63
2023/08/20 00:15:26;;;;;;;5.20;1.88;;;;;;;21.85;63.46;102002.91;5046991;28;20053;-62
2023/08/20 00:17:54;;;;;;;4.05;2.20;;;;;;;21.84;63.71;102012.22;5063078;28;20490;-62
2023/08/20 00:20:23;;;;;;;5.90;2.35;;;;;;;21.84;63.87;102004.00;5061913;28;20049;-62
2023/08/20 00:22:52;;;;;;;5.75;2.45;;;;;;;21.82;63.75;102011.66;5061710;28;20052;-62
2023/08/20 00:25:20;;;;;;;6.05;2.20;;;;;;;21.81;63.46;101998.25;5042738;28;20057;-63
2023/08/20 00:27:48;;;;;;;5.32;2.08;;;;;;;21.80;63.68;102005.63;5048325;28;20074;-63
2023/08/20 00:30:16;;;;;;;6.38;2.38;;;;;;;21.79;63.58;102000.41;5061477;28;20057;-62
2023/08/20 00:32:45;;;;;;;6.13;1.92;;;;;;;21.74;63.85;102002.06;5062453;28;20053;-63
2023/08/20 00:35:13;;;;;;;4.95;2.17;;;;;;;21.75;63.89;102009.16;5053182;28;20065;-62
2023/08/20 00:37:41;;;;;;;5.95;1.80;;;;;;;21.75;63.59;102016.56;5104674;27;20076;-62
2023/08/20 00:40:10;;;;;;;5.63;1.63;;;;;;;21.73;63.85;102013.25;5089066;27;20077;-62
2023/08/20 00:42:38;;;;;;;8.77;1.90;;;;;;;21.73;63.73;102018.72;5053782;28;20045;-63
2023/08/20 00:45:06;;;;;;;8.98;2.22;;;;;;;21.71;63.86;102031.88;5022969;28;20506;-63
2023/08/20 00:47:36;;;;;;;7.75;2.80;;;;;;;21.70;63.84;102030.22;5026637;28;20050;-62
2023/08/20 00:50:08;;;;;;;6.95;1.75;;;;;;;21.69;63.66;102039.50;5053086;28;20053;-62
2023/08/20 00:52:37;;;;;;;5.45;2.05;;;;;;;21.67;63.78;102031.56;5042543;28;20460;-63
2023/08/20 00:55:09;;;;;;;5.72;2.05;;;;;;;21.66;63.91;102037.31;5055253;28;20052;-62
2023/08/20 00:57:38;;;;;;;4.70;1.65;;;;;;;21.65;63.74;102038.41;5061163;27;20072;-63
2023/08/20 01:00:10;;;;;;;6.93;1.80;;;;;;;21.64;63.94;102039.50;5062699;28;20109;-63
2023/08/20 01:02:39;;;;;;;6.63;2.33;;;;;;;21.62;63.83;102038.94;5062082;27;20060;-63
2023/08/20 01:05:12;;;;;;;5.13;2.05;;;;;;;21.60;63.66;102047.41;5062644;28;20045;-63
2023/08/20 01:07:59;;;;;;;5.13;1.90;;;;;;;21.61;63.74;102061.91;5043660;28;20045;-63
2023/08/20 01:10:38;;;;;;;4.57;1.80;;;;;;;21.60;63.83;102076.69;5042594;28;20052;-63
2023/08/20 01:13:08;;;;;;;6.10;1.92;;;;;;;21.59;63.82;102073.13;5042344;28;20061;-62
2023/08/20 01:15:36;;;;;;;4.55;2.10;;;;;;;21.59;64.01;102072.31;5043160;28;20056;-62
2023/08/20 01:18:04;;;;;;;6.72;1.95;;;;;;;21.51;64.01;102070.06;5062256;28;20509;-63
2023/08/20 01:20:40;;;;;;;6.13;1.92;;;;;;;21.58;64.07;102084.34;5062183;28;20431;-63
2023/08/20 01:23:33;;;;;;;5.70;1.77;;;;;;;21.56;64.23;102078.31;5048525;28;20045;-63
2023/08/20 01:26:27;;;;;;;6.95;1.95;;;;;;;21.55;63.88;102072.00;5042819;28;20057;-62
2023/08/20 01:28:57;;;;;;;8.57;2.20;;;;;;;21.55;64.24;102073.91;5059628;28;20134;-62
2023/08/20 01:31:26;;;;;;;6.38;1.67;;;;;;;21.54;64.24;102064.06;5062255;28;20052;-62
2023/08/20 01:33:55;;;;;;;6.60;2.13;;;;;;;21.53;64.01;102071.44;5060567;28;20108;-63
2023/08/20 01:36:25;;;;;;;9.73;2.60;;;;;;;21.52;64.06;102067.06;5069090;27;20064;-62
2023/08/20 01:38:53;;;;;;;5.47;2.33;;;;;;;21.52;64.20;102063.50;5122247;27;20045;-63
2023/08/20 01:41:21;;;;;;;6.40;1.90;;;;;;;21.51;64.07;102062.69;5065533;27;20049;-62
2023/08/20 01:43:49;;;;;;;5.10;1.95;;;;;;;21.51;64.21;102067.34;5055383;28;20041;-63
2023/08/20 01:46:18;;;;;;;6.88;2.08;;;;;;;21.50;64.03;102071.97;5065614;28;20067;-63
2023/08/20 01:48:46;;;;;;;4.32;1.75;;;;;;;21.49;64.13;102075.81;5065551;28;20053;-63
2023/08/20 01:51:15;;;;;;;6.15;2.50;;;;;;;21.48;64.33;102071.41;5045893;28;20049;-63
2023/08/20 01:53:42;;;;;;;5.55;2.38;;;;;;;21.48;64.23;102071.41;5044378;28;20075;-63
2023/08/20 01:56:14;;;;;;;5.35;2.08;;;;;;;21.48;64.29;102071.41;5045746;28;20053;-63
2023/08/20 01:58:41;;;;;;;4.75;1.85;;;;;;;21.47;64.33;102074.41;5045594;28;20079;-63
2023/08/20 02:01:09;;;;;;;3.97;2.00;;;;;;;21.47;64.45;102079.91;5045481;28;20082;-63
2023/08/20 02:03:39;;;;;;;5.03;1.90;;;;;;;21.45;64.23;102085.63;5045053;28;20060;-63
2023/08/20 02:06:07;;;;;;;6.53;2.05;;;;;;;21.44;64.20;102090.28;5045106;28;20053;-62
2023/08/20 02:08:35;;;;;;;6.47;2.20;;;;;;;21.44;64.37;102084.81;5064525;28;20129;-62
2023/08/20 02:11:04;;;;;;;10.48;2.33;;;;;;;21.44;64.50;102089.44;5065030;28;20478;-63
2023/08/20 02:13:33;;;;;;;5.90;2.05;;;;;;;21.42;64.60;102083.41;5048005;28;20109;-63
2023/08/20 02:16:02;;;;;;;11.20;2.67;;;;;;;21.40;64.48;102089.16;5045481;28;20095;-63
2023/08/20 02:18:30;;;;;;;8.32;1.92;;;;;;;21.29;64.41;102075.69;5045088;28;20059;-63
2023/08/20 02:20:59;;;;;;;5.90;1.92;;;;;;;21.40;64.35;102088.34;5045207;28;20055;-63
2023/08/20 02:23:27;;;;;;;6.80;2.22;;;;;;;21.37;64.54;102086.94;5045372;27;20052;-63
2023/08/20 02:25:55;;;;;;;7.65;2.20;;;;;;;21.37;64.81;102084.22;5044984;28;20045;-62
2023/08/20 02:28:23;;;;;;;6.47;2.17;;;;;;;21.36;64.61;102085.31;5070863;27;20049;-63
2023/08/20 02:30:51;;;;;;;7.90;2.30;;;;;;;21.35;64.71;102086.38;5065043;28;20070;-62
2023/08/20 02:33:19;;;;;;;6.18;2.80;;;;;;;21.35;64.70;102086.38;5064335;28;20186;-62
2023/08/20 02:35:47;;;;;;;6.40;2.60;;;;;;;21.34;65.03;102076.53;5052944;28;20098;-62
2023/08/20 02:38:16;;;;;;;8.02;2.92;;;;;;;21.31;64.97;102071.59;5131033;27;20054;-63
2023/08/20 02:40:44;;;;;;;6.53;2.30;;;;;;;21.34;64.91;102075.72;5101608;27;20145;-62
2023/08/20 02:43:12;;;;;;;4.70;1.52;;;;;;;21.32;65.03;102081.44;5044631;28;20125;-63
2023/08/20 02:45:43;;;;;;;5.60;2.13;;;;;;;21.31;65.03;102088.00;5044553;28;20091;-62
2023/08/20 02:48:11;;;;;;;6.45;1.90;;;;;;;21.29;65.09;102087.44;5043924;28;20055;-62
2023/08/20 02:50:39;;;;;;;4.38;1.98;;;;;;;21.27;65.10;102075.94;5044804;28;20049;-63
2023/08/20 02:53:08;;;;;;;6.10;1.95;;;;;;;21.15;65.09;102052.59;5043666;28;20049;-62
2023/08/20 02:55:37;;;;;;;7.97;2.08;;;;;;;21.25;65.13;102075.38;5025079;28;20045;-62
2023/08/20 02:58:07;;;;;;;5.45;1.75;;;;;;;21.25;65.00;102069.09;5024907;28;20049;-62
2023/08/20 03:00:36;;;;;;;6.30;2.50;;;;;;;21.25;65.10;102063.63;5044254;28;20071;-62
2023/08/20 03:03:07;;;;;;;6.03;2.17;;;;;;;21.23;65.15;102074.81;5044184;28;20056;-62
2023/08/20 03:05:35;;;;;;;5.38;2.22;;;;;;;21.23;65.05;102072.09;5044126;28;20122;-63
2023/08/20 03:08:04;;;;;;;4.70;2.03;;;;;;;21.23;65.24;102071.25;5064219;28;20060;-64
2023/08/20 03:10:33;;;;;;;7.93;2.83;;;;;;;21.15;65.29;102058.88;5059598;28;20121;-63
2023/08/20 03:13:03;;;;;;;3.67;2.10;;;;;;;21.21;65.30;102065.19;5044025;28;20041;-62
2023/08/20 03:15:31;;;;;;;8.05;2.33;;;;;;;21.12;65.20;102051.19;5044618;28;20053;-62
2023/08/20 03:17:59;;;;;;;6.80;1.88;;;;;;;21.20;65.33;102063.56;5056456;28;20051;-62
2023/08/20 03:20:28;;;;;;;7.70;2.20;;;;;;;21.18;65.17;102061.09;5062752;28;20494;-62
2023/08/20 03:22:56;;;;;;;5.22;2.35;;;;;;;21.18;65.15;102063.81;5026797;27;20071;-63
2023/08/20 03:25:24;;;;;;;6.75;2.55;;;;;;;21.18;65.32;102066.56;5044284;28;20098;-63
2023/08/20 03:27:52;;;;;;;6.10;1.90;;;;;;;21.17;65.34;102070.38;5096925;27;20329;-63
2023/08/20 03:30:22;;;;;;;5.82;2.10;;;;;;;21.16;65.34;102070.63;5146404;27;20069;-62
2023/08/20 03:32:49;;;;;;;4.45;1.90;;;;;;;21.15;65.31;102069.00;5048024;28;20056;-62
2023/08/20 03:35:17;;;;;;;6.05;2.10;;;;;;;21.15;65.43;102067.06;5057989;28;20077;-62
2023/08/20 03:37:45;;;;;;;5.43;1.83;;;;;;;21.13;65.42;102067.34;5109061;27;20055;-63
2023/08/20 03:40:13;;;;;;;9.60;2.75;;;;;;;21.12;65.32;102060.22;5122680;27;20053;-62
2023/08/20 03:42:43;;;;;;;4.35;2.10;;;;;;;21.12;65.19;102067.59;5043437;28;20053;-63
2023/08/20 03:45:11;;;;;;;5.38;2.00;;;;;;;21.11;65.31;102071.41;5043896;28;20078;-63
2023/08/20 03:47:43;;;;;;;5.03;2.10;;;;;;;21.10;65.46;102076.06;5057068;28;20049;-62
2023/08/20 03:50:12;;;;;;;10.38;2.88;;;;;;;21.09;65.27;102079.06;5053118;28;20046;-63
2023/08/20 03:52:40;;;;;;;4.82;1.98;;;;;;;21.08;65.20;102078.25;5043426;28;20041;-63
2023/08/20 03:55:08;;;;;;;4.95;2.10;;;;;;;21.06;65.40;102074.13;5059808;28;20391;-63
2023/08/20 03:57:36;;;;;;;4.63;2.80;;;;;;;21.05;65.24;102084.22;5063572;28;20049;-63
2023/08/20 04:00:08;;;;;;;8.25;2.55;;;;;;;21.04;65.38;102084.50;5061035;28;20413;-62
2023/08/20 04:02:36;;;;;;;4.93;1.88;;;;;;;21.02;65.49;102081.19;5063033;27;20080;-62
2023/08/20 04:05:05;;;;;;;4.05;1.98;;;;;;;21.02;65.26;102090.22;5056831;28;20046;-62
2023/08/20 04:07:33;;;;;;;4.75;2.05;;;;;;;21.00;65.48;102086.09;5043326;28;20053;-62
2023/08/20 04:10:01;;;;;;;6.60;2.50;;;;;;;20.99;65.27;102087.19;5055737;28;20055;-63
2023/08/20 04:12:29;;;;;;;6.65;2.40;;;;;;;20.97;65.44;102095.66;5063237;28;20081;-61
2023/08/20 04:14:57;;;;;;;7.03;2.35;;;;;;;20.96;65.42;102094.00;5063241;28;20052;-62
2023/08/20 04:17:25;;;;;;;6.47;2.60;;;;;;;20.95;65.46;102099.72;5054611;28;20110;-61
2023/08/20 04:19:53;;;;;;;5.93;2.33;;;;;;;20.93;65.46;102108.19;5043558;28;20444;-62
2023/08/20 04:22:22;;;;;;;6.93;1.83;;;;;;;20.92;65.52;102105.72;5043161;28;20050;-62
2023/08/20 04:24:50;;;;;;;8.10;2.38;;;;;;;20.91;65.47;102098.59;5053070;28;20114;-62
2023/08/20 04:27:18;;;;;;;4.90;2.00;;;;;;;20.90;65.37;102103.25;5055827;27;20071;-62
2023/08/20 04:29:46;;;;;;;8.55;2.63;;;;;;;20.87;65.41;102109.22;5023216;28;20103;-62
2023/08/20 04:32:14;;;;;;;6.60;2.10;;;;;;;20.87;65.45;102103.75;5023156;28;20076;-62
2023/08/20 04:34:42;;;;;;;6.32;1.98;;;;;;;20.86;65.39;102114.94;5058924;28;20049;-62
2023/08/20 04:37:09;;;;;;;7.18;2.10;;;;;;;20.85;65.41;102110.56;5093119;27;20055;-63
2023/08/20 04:39:39;;;;;;;5.72;2.10;;;;;;;20.83;65.25;102108.09;5060342;27;20117;-62
2023/08/20 04:42:07;;;;;;;6.13;2.28;;;;;;;20.83;65.32;102118.19;5044365;28;20042;-62
2023/08/20 04:44:34;;;;;;;6.93;1.85;;;;;;;20.82;65.19;102113.81;5062671;28;20049;-63
2023/08/20 04:47:02;;;;;;;6.85;2.90;;;;;;;20.77;65.35;102106.44;5062691;28;20053;-63
2023/08/20 04:49:30;;;;;;;11.10;2.47;;;;;;;20.78;65.36;102113.53;5057810;28;20049;-63
2023/08/20 04:51:58;;;;;;;4.68;2.10;;;;;;;20.77;65.34;102123.66;5042975;28;20102;-62
2023/08/20 04:54:26;;;;;;;5.10;1.92;;;;;;;20.76;65.35;102110.25;5052761;28;20074;-62
2023/08/20 04:56:55;;;;;;;3.83;1.90;;;;;;;20.75;65.30;102116.78;5062442;28;20049;-63
2023/08/20 04:59:23;;;;;;;4.55;2.13;;;;;;;20.73;65.29;102110.75;5043772;28;20407;-62
2023/08/20 05:01:51;;;;;;;6.13;2.65;;;;;;;20.73;65.22;102113.50;5042563;28;20094;-62
2023/08/20 05:04:19;;;;;;;6.90;2.55;;;;;;;20.70;65.36;102114.84;5042616;28;20125;-61
2023/08/20 05:06:47;;;;;;;5.22;2.13;;;;;;;20.68;65.45;102119.75;5042620;28;20049;-63
2023/08/20 05:09:16;;;;;;;5.28;2.20;;;;;;;20.69;65.38;102115.09;5042504;28;20053;-64
2023/08/20 05:11:43;;;;;;;6.57;2.88;;;;;;;20.68;65.50;102119.75;5042142;28;20048;-62
2023/08/20 05:14:13;;;;;;;5.43;2.35;;;;;;;20.66;65.51;102123.81;5042640;28;20074;-62
2023/08/20 05:16:41;;;;;;;7.28;2.83;;;;;;;20.66;65.47;102118.34;5062106;28;20120;-61
2023/08/20 05:19:09;;;;;;;7.20;2.38;;;;;;;20.64;65.44;102124.06;5047492;28;20508;-63
2023/08/20 05:21:37;;;;;;;5.70;2.65;;;;;;;20.64;65.58;102121.34;5042269;28;20083;-63
2023/08/20 05:24:05;;;;;;;7.72;2.28;;;;;;;20.63;65.49;102127.88;5042758;28;20056;-63
2023/08/20 05:26:33;;;;;;;5.03;2.05;;;;;;;20.63;65.57;102121.59;5042291;28;20049;-63
2023/08/20 05:29:01;;;;;;;6.28;3.13;;;;;;;20.63;65.57;102118.88;5144687;28;20048;-63
2023/08/20 05:31:30;;;;;;;6.82;3.00;;;;;;;20.61;65.64;102127.31;5146499;28;20043;-62
2023/08/20 05:33:58;;;;;;;5.30;2.78;;;;;;;20.60;65.62;102120.19;5064899;28;20075;-62
2023/08/20 05:36:26;;;;;;;4.78;2.28;;;;;;;20.59;65.56;102126.75;5050720;28;20081;-62
2023/08/20 05:38:54;;;;;;;4.00;2.35;;;;;;;20.60;65.45;102133.03;5063314;28;20106;-62
2023/08/20 05:41:22;;;;;;;4.75;2.85;;;;;;;20.60;65.76;102127.56;5042204;28;20486;-63
2023/08/20 05:43:50;;;;;;;8.05;2.78;;;;;;;20.59;65.81;102131.38;5041877;28;20482;-63
2023/08/20 05:46:17;;;;;;;7.82;2.75;;;;;;;20.58;65.94;102133.28;5042159;28;20054;-62
2023/08/20 05:48:47;;;;;;;6.28;2.25;;;;;;;20.58;65.87;102141.50;5059421;28;20056;-63
2023/08/20 05:51:14;;;;;;;4.15;2.40;;;;;;;20.57;65.72;102139.84;5042048;28;20074;-62
2023/08/20 05:53:42;;;;;;;4.97;2.20;;;;;;;20.56;65.89;102143.66;5037599;28;20049;-62
2023/08/20 05:56:10;;;;;;;7.88;3.47;;;;;;;20.57;65.79;102139.00;5042116;28;20102;-62
2023/08/20 05:58:39;;;;;;;8.82;2.90;;;;;;;20.52;65.86;102136.22;5057769;28;20053;-62
2023/08/20 06:01:06;;;;;;;5.47;3.05;;;;;;;20.57;65.95;102134.38;5062158;28;20072;-62
2023/08/20 06:03:34;;;;;;;7.03;3.08;;;;;;;20.59;65.93;102136.84;5061166;27;20125;-62
2023/08/20 06:06:03;;;;;;;6.63;2.20;;;;;;;20.59;65.88;102134.94;5061984;28;20071;-63
2023/08/20 06:08:35;;;;;;;6.90;2.95;;;;;;;20.60;65.77;102133.03;5044407;28;20054;-62
2023/08/20 06:11:03;;;;;;;4.32;2.05;;;;;;;20.62;65.84;102131.69;5041969;28;20046;-63
2023/08/20 06:13:31;;;;;;;4.70;2.22;;;;;;;20.64;65.77;102134.16;5041569;28;20063;-62
2023/08/20 06:15:59;;;;;;;5.78;2.42;;;;;;;20.66;65.70;102130.09;5048739;28;20056;-62
2023/08/20 06:18:27;;;;;;;5.00;1.88;;;;;;;20.68;65.71;102119.75;5061526;28;20616;-63
2023/08/20 06:20:55;;;;;;;4.90;2.35;;;;;;;20.71;65.82;102126.59;5048419;28;20045;-63
2023/08/20 06:23:24;;;;;;;7.63;2.10;;;;;;;20.73;65.78;102127.16;5043938;27;20057;-62
2023/08/20 06:26:10;;;;;;;5.70;2.03;;;;;;;20.75;65.83;102127.72;5045173;28;20045;-62
2023/08/20 06:28:38;;;;;;;4.43;2.15;;;;;;;20.76;66.04;102130.19;5072585;27;20053;-62
2023/08/20 06:31:06;;;;;;;7.22;2.47;;;;;;;20.78;65.98;102136.22;5045010;28;20045;-62
2023/08/20 06:33:33;;;;;;;8.60;2.35;;;;;;;20.80;65.96;102133.25;5091315;27;20043;-62
2023/08/20 06:36:01;;;;;;;6.80;1.88;;;;;;;20.83;65.90;102137.31;5141157;27;20108;-62
2023/08/20 06:38:31;;;;;;;5.95;2.40;;;;;;;20.84;65.86;102138.97;5122794;27;20053;-63
2023/08/20 06:40:58;;;;;;;7.47;2.58;;;;;;;20.86;65.65;102142.28;5050145;28;20053;-63
2023/08/20 06:43:26;;;;;;;6.40;2.42;;;;;;;20.86;65.51;102140.38;5064550;28;20057;-62
2023/08/20 06:45:54;;;;;;;4.05;1.75;;;;;;;20.88;65.79;102138.19;5063379;28;20105;-62
2023/08/20 06:48:24;;;;;;;6.18;2.40;;;;;;;20.91;65.76;102148.63;5024670;28;20054;-62
2023/08/20 06:50:52;;;;;;;5.57;1.95;;;;;;;20.94;65.66;102144.53;5042267;28;20055;-62
2023/08/20 06:53:20;;;;;;;4.13;1.92;;;;;;;20.97;65.68;102150.31;5058128;28;20408;-62
2023/08/20 06:55:49;;;;;;;6.22;2.28;;;;;;;21.00;65.59;102157.16;5044607;28;20071;-62
2023/08/20 06:58:17;;;;;;;4.80;1.92;;;;;;;21.02;65.34;102155.00;5044563;28;20050;-63
2023/08/20 07:00:45;;;;;;;6.22;2.35;;;;;;;21.05;65.24;102151.75;5044710;28;20056;-62
2023/08/20 07:03:13;;;;;;;8.23;2.40;;;;;;;21.07;65.00;102149.56;5047813;27;20387;-62
2023/08/20 07:05:40;;;;;;;7.53;2.50;;;;;;;20.97;64.94;102133.09;5064513;28;20072;-62
2023/08/20 07:08:08;;;;;;;5.95;2.20;;;;;;;21.05;64.74;102155.31;5064220;28;20053;-62
2023/08/20 07:10:36;;;;;;;5.55;1.95;;;;;;;21.03;64.85;102149.28;5064291;28;20410;-62
2023/08/20 07:13:06;;;;;;;7.43;2.47;;;;;;;20.94;64.79;102145.38;5062534;27;20041;-62
2023/08/20 07:15:34;;;;;;;7.40;2.25;;;;;;;21.00;64.87;102154.44;5064295;28;20041;-63
2023/08/20 07:18:02;;;;;;;7.40;2.13;;;;;;;20.90;64.74;102146.13;5044065;28;20053;-63
2023/08/20 07:20:30;;;;;;;7.68;2.85;;;;;;;20.97;64.77;102157.69;5053455;28;20048;-62
2023/08/20 07:22:58;;;;;;;6.18;2.20;;;;;;;20.96;64.57;102159.59;5061350;28;20453;-62
2023/08/20 07:25:26;;;;;;;5.45;2.42;;;;;;;20.94;64.13;102164.50;5044365;28;20046;-61
2023/08/20 07:27:59;;;;;;;8.15;2.20;;;;;;;20.93;64.29;102160.13;5048443;28;20041;-62
2023/08/20 07:30:28;;;;;;;11.20;2.70;;;;;;;20.93;64.14;102162.84;5044446;28;20053;-62
2023/08/20 07:32:56;;;;;;;4.72;1.75;;;;;;;20.92;64.17;102165.84;5047119;28;20129;-63
2023/08/20 07:35:24;;;;;;;6.75;2.65;;;;;;;20.91;64.28;102158.72;5062592;28;20048;-63
2023/08/20 07:37:53;;;;;;;6.20;1.83;;;;;;;20.92;64.13;102157.63;5058342;27;20057;-62
2023/08/20 07:40:21;;;;;;;6.68;2.35;;;;;;;20.92;64.19;102153.00;5043949;28;20075;-63
2023/08/20 07:42:50;;;;;;;6.93;2.40;;;;;;;20.91;64.19;102156.81;5043719;28;20053;-63
2023/08/20 07:45:18;;;;;;;7.47;2.70;;;;;;;20.92;64.21;102157.63;5043784;28;20110;-62
2023/08/20 07:47:48;;;;;;;9.27;2.63;;;;;;;20.92;64.27;102158.47;5053009;28;20052;-62
2023/08/20 07:50:16;;;;;;;9.90;2.75;;;;;;;20.91;64.43;102164.19;5052451;28;20064;-61
2023/08/20 07:52:44;;;;;;;10.10;2.85;;;;;;;20.93;64.36;102164.75;5052721;28;20042;-63
2023/08/20 07:55:12;;;;;;;4.55;1.92;;;;;;;20.92;64.37;102163.09;5058490;28;20057;-63
2023/08/20 07:57:40;;;;;;;8.55;2.10;;;;;;;20.92;64.37;102169.41;5063633;28;20045;-63
2023/08/20 08:00:09;;;;;;;5.03;2.15;;;;;;;20.93;64.46;102170.22;5059712;28;20046;-63
2023/08/20 08:02:37;;;;;;;7.15;2.20;;;;;;;20.93;64.44;102178.41;5043227;28;20524;-62
2023/08/20 08:05:07;;;;;;;5.65;1.80;;;;;;;20.95;64.39;102171.63;5050184;28;20052;-62
2023/08/20 08:07:35;;;;;;;5.22;1.92;;;;;;;20.95;64.28;102173.53;5063446;28;20074;-61
2023/08/20 08:10:04;;;;;;;5.97;2.20;;;;;;;20.95;64.45;102181.72;5063352;28;20056;-63
2023/08/20 08:12:32;;;;;;;8.73;1.90;;;;;;;20.95;64.24;102181.72;5051223;28;20061;-62
2023/08/20 08:15:00;;;;;;;5.55;2.05;;;;;;;20.96;64.34;102183.38;5043427;28;20053;-62
2023/08/20 08:17:28;;;;;;;7.68;2.55;;;;;;;20.97;64.21;102185.03;5043148;28;20054;-63
2023/08/20 08:19:57;;;;;;;9.10;2.55;;;;;;;20.97;64.50;102185.03;5061938;28;20437;-61
2023/08/20 08:22:27;;;;;;;6.53;2.72;;;;;;;20.92;64.27;102179.50;5063252;27;20045;-62
2023/08/20 08:24:54;;;;;;;7.88;2.35;;;;;;;20.99;64.20;102189.13;5043852;28;20054;-62
2023/08/20 08:27:22;;;;;;;7.82;2.40;;;;;;;21.00;64.25;102192.69;5053799;28;20056;-62
2023/08/20 08:29:51;;;;;;;10.77;2.85;;;;;;;21.01;64.26;102192.44;5063216;28;20120;-62
2023/08/20 08:32:19;;;;;;;4.85;1.80;;;;;;;21.02;64.19;102185.91;5045450;28;20071;-62
2023/08/20 08:34:47;;;;;;;5.00;1.85;;;;;;;21.04;64.45;102196.56;5052957;28;20046;-63
2023/08/20 08:37:15;;;;;;;5.45;2.33;;;;;;;21.04;64.54;102191.09;5086479;27;20059;-62
2023/08/20 08:39:45;;;;;;;10.13;2.33;;;;;;;21.06;64.47;102197.13;5147030;27;20073;-62
2023/08/20 08:42:14;;;;;;;6.80;2.15;;;;;;;21.05;64.46;102193.56;5146953;27;20058;-63
2023/08/20 08:44:42;;;;;;;5.55;1.92;;;;;;;21.07;64.80;102187.84;5076023;27;20049;-62
2023/08/20 08:47:11;;;;;;;9.18;2.30;;;;;;;21.10;64.62;102198.25;5062754;28;20052;-63
2023/08/20 08:49:39;;;;;;;6.60;2.13;;;;;;;21.10;64.56;102193.63;5042419;28;20063;-62
2023/08/20 08:52:07;;;;;;;6.78;2.88;;;;;;;21.12;64.85;102202.38;5042947;28;20049;-62
2023/08/20 08:54:35;;;;;;;8.50;2.15;;;;;;;21.14;65.00;102199.41;5054095;28;20053;-63
2023/08/20 08:57:05;;;;;;;7.55;2.65;;;;;;;21.16;64.94;102190.94;5057553;28;20067;-62
2023/08/20 08:59:33;;;;;;;6.60;2.50;;;;;;;21.18;65.03;102197.78;5042622;28;20078;-62
2023/08/20 09:02:01;;;;;;;6.20;2.20;;;;;;;21.19;65.03;102202.19;5042574;28;20620;-62
2023/08/20 09:04:32;;;;;;;7.07;2.15;;;;;;;21.17;65.21;102187.94;5042491;28;20067;-62
2023/08/20 09:07:00;;;;;;;7.72;2.50;;;;;;;21.23;64.95;102200.59;5042592;28;20084;-62
2023/08/20 09:09:30;;;;;;;6.15;2.33;;;;;;;21.24;64.80;102196.78;5050256;28;20503;-63
2023/08/20 09:11:58;;;;;;;7.57;2.78;;;;;;;21.26;65.08;102202.00;5042531;28;20053;-62
2023/08/20 09:14:31;;;;;;;7.13;2.33;;;;;;;21.30;65.38;102197.66;5041575;28;20422;-63
2023/08/20 09:17:00;;;;;;;7.70;2.28;;;;;;;21.35;65.38;102205.91;5042230;28;20082;-62
2023/08/20 09:19:30;;;;;;;4.78;2.10;;;;;;;21.37;65.02;102204.56;5046791;28;20054;-62
2023/08/20 09:22:01;;;;;;;8.75;2.30;;;;;;;21.39;64.96;102204.28;5042808;28;20423;-62
2023/08/20 09:24:34;;;;;;;6.20;2.63;;;;;;;21.42;65.05;102203.78;5042165;28;20046;-63
2023/08/20 09:27:05;;;;;;;7.47;2.25;;;;;;;21.43;64.91;102206.25;5045656;28;20045;-63
2023/08/20 09:29:45;;;;;;;4.32;2.10;;;;;;;21.45;64.46;102200.50;5060795;28;20059;-62
2023/08/20 09:32:15;;;;;;;5.68;2.30;;;;;;;21.47;64.22;102197.50;5061043;28;20060;-62
2023/08/20 09:34:43;;;;;;;6.07;1.70;;;;;;;21.50;64.04;102199.72;5060781;28;20484;-62
2023/08/20 09:37:12;;;;;;;9.27;2.08;;;;;;;21.53;64.01;102202.75;5057797;28;20045;-62
2023/08/20 09:39:40;;;;;;;4.30;2.00;;;;;;;21.56;64.07;102196.75;5062067;28;20051;-62
2023/08/20 09:42:09;;;;;;;8.52;2.30;;;;;;;21.58;64.13;102205.53;5060570;27;20052;-62
2023/08/20 09:44:40;;;;;;;2.83;1.90;;;;;;;21.62;63.99;102192.97;5061590;28;20045;-61
2023/08/20 09:47:09;;;;;;;5.35;1.80;;;;;;;21.68;63.69;102199.31;5061900;27;20124;-62
2023/08/20 09:49:39;;;;;;;4.35;2.05;;;;;;;21.72;63.55;102198.53;5056086;28;20391;-63
2023/08/20 09:52:08;;;;;;;6.00;1.88;;;;;;;21.77;63.21;102198.56;5051811;27;20071;-62
2023/08/20 09:54:46;;;;;;;3.97;1.60;;;;;;;21.83;63.39;102195.84;5056738;27;20070;-61
2023/08/20 09:57:20;;;;;;;2.95;1.60;;;;;;;21.88;63.82;102204.91;5062600;28;20049;-62
2023/08/20 09:59:51;;;;;;;4.20;1.60;;;;;;;21.90;63.90;102207.38;5063956;27;20045;-62
2023/08/20 10:02:20;;;;;;;4.60;2.03;;;;;;;21.93;63.58;102195.91;5065031;28;20056;-62
2023/08/20 10:04:49;;;;;;;6.10;2.58;;;;;;;21.94;62.99;102201.13;5061643;28;20066;-63
2023/08/20 10:07:18;;;;;;;3.70;1.40;;;;;;;21.96;62.73;102193.47;5063204;28;20081;-63
2023/08/20 10:09:50;;;;;;;3.00;1.35;;;;;;;22.00;62.65;102194.59;5065240;28;20113;-63
2023/08/20 10:12:18;;;;;;;2.63;1.38;;;;;;;22.05;62.07;102194.66;5065443;28;20076;-63
2023/08/20 10:14:46;;;;;;;1.63;1.17;;;;;;;22.11;62.15;102195.50;5063259;28;20490;-62
2023/08/20 10:17:15;;;;;;;3.63;1.67;;;;;;;22.14;62.43;102208.66;5047300;28;20053;-62
2023/08/20 10:19:43;;;;;;;2.55;1.50;;;;;;;22.14;61.88;102203.19;5044987;28;20053;-62
2023/08/20 10:22:12;;;;;;;2.10;1.42;;;;;;;22.15;62.00;102198.53;5064311;27;20057;-62
2023/08/20 10:24:48;;;;;;;3.67;1.10;;;;;;;22.18;61.69;102204.28;5048650;28;20045;-62
2023/08/20 10:27:26;;;;;;;2.63;1.00;;;;;;;22.23;60.56;102203.50;5072069;27;20043;-63
2023/08/20 10:29:54;;;;;;;2.85;1.27;;;;;;;22.26;60.72;102194.75;5094073;27;20045;-63
2023/08/20 10:32:48;;;;;;;1.63;1.00;;;;;;;22.31;60.94;102198.31;5062321;27;20106;-63
2023/08/20 10:35:17;;;;;;;3.17;1.58;;;;;;;22.34;60.49;102200.53;5025094;28;20099;-63
2023/08/20 10:38:04;;;;;;;3.22;1.33;;;;;;;22.41;60.55;102200.28;5107559;27;20500;-62
2023/08/20 10:40:54;;;;;;;2.45;1.50;;;;;;;22.46;60.45;102203.03;5124463;27;20497;-62
2023/08/20 10:43:32;;;;;;;3.13;1.30;;;;;;;22.50;60.05;102201.41;5065577;28;20057;-63
2023/08/20 10:46:19;;;;;;;2.30;1.02;;;;;;;22.47;59.39;102190.16;5046068;28;20068;-63
2023/08/20 10:48:51;;;;;;;2.70;1.00;;;;;;;22.55;59.74;102197.84;5050986;28;20171;-63
2023/08/20 10:51:25;;;;;;;3.00;1.17;;;;;;;22.60;60.31;102190.44;5041250;28;20379;-63
2023/08/20 10:54:07;;;;;;;2.92;1.30;;;;;;;22.67;59.49;102192.94;5050394;27;20045;-63
2023/08/20 10:56:43;;;;;;;2.83;0.95;;;;;;;22.70;59.35;102195.97;5064873;28;20068;-63
2023/08/20 10:59:15;;;;;;;3.58;1.30;;;;;;;22.71;57.42;102205.84;5064495;28;20052;-63
2023/08/20 11:01:45;;;;;;;2.67;1.00;;;;;;;22.71;57.39;102197.59;5052020;28;20045;-62
2023/08/20 11:04:16;;;;;;;2.25;1.15;;;;;;;22.71;57.86;102194.88;5043687;28;20042;-62
2023/08/20 11:06:44;;;;;;;3.47;1.30;;;;;;;22.76;57.56;102198.72;5044599;28;20052;-62
2023/08/20 11:09:13;;;;;;;3.47;1.10;;;;;;;22.76;56.90;102193.22;5044137;28;20053;-62
2023/08/20 11:11:41;;;;;;;3.47;1.33;;;;;;;22.82;57.47;102193.00;5044278;28;20050;-63
2023/08/20 11:14:14;;;;;;;3.15;1.08;;;;;;;22.81;58.13;102182.31;5056989;28;20102;-63
2023/08/20 11:16:43;;;;;;;3.45;1.05;;;;;;;22.86;57.37;102179.56;5064537;28;20452;-62
2023/08/20 11:19:11;;;;;;;3.70;1.30;;;;;;;22.94;56.58;102196.31;5064004;28;20135;-62
2023/08/20 11:21:41;;;;;;;2.17;0.93;;;;;;;22.98;56.45;102189.19;5064391;27;20057;-62
2023/08/20 11:24:11;;;;;;;3.10;1.00;;;;;;;23.04;57.43;102198.25;5046276;27;20060;-63
2023/08/20 11:26:42;;;;;;;2.90;1.02;;;;;;;23.08;57.64;102182.91;5044516;28;20071;-62
2023/08/20 11:29:12;;;;;;;2.60;0.95;;;;;;;23.07;58.09;102174.94;5145162;27;20055;-62
2023/08/20 11:31:40;;;;;;;3.60;1.15;;;;;;;23.18;57.48;102184.81;5024520;28;20053;-63
2023/08/20 11:34:08;;;;;;;4.30;1.23;;;;;;;23.17;57.74;102172.19;5054255;28;20053;-63